Time;durP1;ratioP1;P1;durP2;ratioP2;P2;SDS_P1;SDS_P2;PMS_P1;PMS_P2;Temp;Humidity;BMP_temperature;BMP_pressure;BME280_temperature;BME280_humidity;BME280_pressure;Samples;Min_cycle;Max_cycle;Signal;HPM_P1;HPM_P2
2023/06/19 00:02:01;;;;;;;11.07;6.18;;;20.80;99.90;;;;;;5020750;28;20195;-75
2023/06/19 00:04:27;;;;;;;9.75;5.90;;;20.80;99.90;;;;;;5036856;28;20017;-74
2023/06/19 00:06:53;;;;;;;10.23;6.15;;;20.80;99.90;;;;;;5037380;28;20053;-74
2023/06/19 00:09:19;;;;;;;11.55;6.05;;;20.80;99.90;;;;;;5023964;28;20238;-74
2023/06/19 00:11:45;;;;;;;11.40;6.43;;;20.70;99.90;;;;;;5116000;27;20054;-74
2023/06/19 00:14:11;;;;;;;11.45;6.25;;;20.70;99.90;;;;;;5037631;28;20143;-74
2023/06/19 00:16:37;;;;;;;10.25;6.18;;;20.70;99.90;;;;;;5021205;28;20195;-74
2023/06/19 00:19:03;;;;;;;11.95;5.95;;;20.70;99.90;;;;;;5037719;28;20034;-74
2023/06/19 00:21:29;;;;;;;10.75;5.65;;;20.70;99.90;;;;;;5037512;27;20414;-74
2023/06/19 00:23:55;;;;;;;10.55;6.10;;;20.70;99.90;;;;;;5022460;28;20182;-74
2023/06/19 00:26:25;;;;;;;10.38;6.10;;;20.70;99.90;;;;;;5020975;28;20040;-74
2023/06/19 00:28:51;;;;;;;10.73;5.97;;;20.60;99.90;;;;;;5035322;28;20025;-75
2023/06/19 00:31:18;;;;;;;11.23;6.22;;;20.60;99.90;;;;;;5019226;27;20038;-74
2023/06/19 00:33:47;;;;;;;11.10;5.82;;;20.60;99.90;;;;;;5016490;28;20313;-74
2023/06/19 00:36:15;;;;;;;11.15;6.38;;;20.60;99.90;;;;;;5016292;28;20034;-74
2023/06/19 00:38:41;;;;;;;10.95;6.10;;;20.60;99.90;;;;;;5015194;28;20031;-74
2023/06/19 00:41:08;;;;;;;11.52;6.63;;;20.60;99.90;;;;;;5014701;28;20030;-74
2023/06/19 00:43:34;;;;;;;10.10;6.13;;;20.50;99.90;;;;;;5006736;28;20093;-74
2023/06/19 00:46:00;;;;;;;11.52;6.65;;;20.50;99.90;;;;;;5015872;28;20091;-74
2023/06/19 00:48:28;;;;;;;11.18;6.60;;;20.50;99.90;;;;;;5015667;28;20040;-74
2023/06/19 00:50:55;;;;;;;10.00;6.10;;;20.50;99.90;;;;;;5015646;28;20025;-74
2023/06/19 00:53:22;;;;;;;10.93;5.85;;;20.50;99.90;;;;;;5015220;28;20297;-74
2023/06/19 00:55:51;;;;;;;11.75;6.05;;;20.50;99.90;;;;;;5016858;28;20232;-74
2023/06/19 00:58:20;;;;;;;11.43;6.18;;;20.50;99.90;;;;;;4999970;28;20104;-75
2023/06/19 01:00:47;;;;;;;10.18;6.10;;;20.40;99.90;;;;;;5000748;28;20037;-74
2023/06/19 01:03:13;;;;;;;10.73;6.20;;;20.40;99.90;;;;;;5013756;28;20278;-74
2023/06/19 01:05:39;;;;;;;9.98;6.10;;;20.40;99.90;;;;;;5010992;28;20052;-74
2023/06/19 01:08:14;;;;;;;10.77;6.00;;;20.40;99.90;;;;;;5016024;28;20045;-74
2023/06/19 01:10:44;;;;;;;11.43;6.00;;;20.40;99.90;;;;;;4999090;28;20256;-74
2023/06/19 01:13:26;;;;;;;12.68;6.38;;;20.40;99.90;;;;;;5012637;28;20026;-74
2023/06/19 01:15:53;;;;;;;11.43;5.93;;;20.40;99.90;;;;;;5015862;28;20045;-74
2023/06/19 01:18:19;;;;;;;11.20;6.10;;;20.30;99.90;;;;;;4999699;28;20034;-74
2023/06/19 01:20:45;;;;;;;11.05;5.90;;;20.30;99.90;;;;;;4984051;28;20161;-74
2023/06/19 01:23:12;;;;;;;10.02;6.20;;;20.30;99.90;;;;;;5016595;28;20147;-74
2023/06/19 01:25:39;;;;;;;9.93;6.00;;;20.30;99.90;;;;;;4997120;28;20030;-74
2023/06/19 01:28:09;;;;;;;10.57;6.00;;;20.30;99.90;;;;;;4999209;28;20026;-74
2023/06/19 01:30:35;;;;;;;9.93;5.88;;;20.30;99.90;;;;;;5005206;28;20025;-74
2023/06/19 01:33:26;;;;;;;10.60;6.00;;;20.30;99.90;;;;;;5015440;28;20218;-74
2023/06/19 01:35:52;;;;;;;12.32;6.00;;;20.30;99.90;;;;;;5012988;28;20310;-74
2023/06/19 01:38:21;;;;;;;11.13;6.07;;;20.30;99.90;;;;;;5006239;28;20185;-74
2023/06/19 01:40:49;;;;;;;11.32;6.53;;;20.30;99.90;;;;;;4999855;28;20160;-74
2023/06/19 01:43:16;;;;;;;11.32;6.10;;;20.30;99.90;;;;;;5015020;28;20041;-74
2023/06/19 01:45:43;;;;;;;11.35;6.40;;;20.20;99.90;;;;;;5014732;28;20057;-74
2023/06/19 01:48:08;;;;;;;10.70;6.10;;;20.20;99.90;;;;;;5013386;28;20078;-74
2023/06/19 01:50:34;;;;;;;13.25;6.43;;;20.20;99.90;;;;;;5001936;28;20041;-74
2023/06/19 01:53:00;;;;;;;10.13;6.03;;;20.20;99.90;;;;;;5015507;28;20093;-74
2023/06/19 01:55:26;;;;;;;10.63;5.75;;;20.20;99.90;;;;;;4998126;28;20333;-74
2023/06/19 01:57:51;;;;;;;10.20;5.75;;;20.20;99.90;;;;;;5007866;28;20271;-74
2023/06/19 02:00:18;;;;;;;12.52;6.07;;;20.20;99.90;;;;;;4998972;28;20159;-74
2023/06/19 02:02:43;;;;;;;10.15;5.78;;;20.20;99.90;;;;;;5015996;28;20026;-74
2023/06/19 02:05:09;;;;;;;9.52;5.75;;;20.20;99.90;;;;;;4996937;28;20071;-74
2023/06/19 02:07:35;;;;;;;12.02;6.00;;;20.20;99.90;;;;;;5014517;28;20025;-74
2023/06/19 02:10:01;;;;;;;10.88;5.82;;;20.20;99.90;;;;;;4999064;28;20037;-74
2023/06/19 02:12:27;;;;;;;10.98;6.00;;;20.20;99.90;;;;;;5015044;28;20021;-74
2023/06/19 02:14:52;;;;;;;10.25;5.75;;;20.10;99.90;;;;;;5015277;28;20290;-74
2023/06/19 02:17:18;;;;;;;10.45;5.97;;;20.10;99.90;;;;;;5000092;28;20307;-74
2023/06/19 02:19:44;;;;;;;10.98;6.50;;;20.10;99.90;;;;;;4998415;28;20022;-74
2023/06/19 02:22:10;;;;;;;10.80;6.32;;;20.10;99.90;;;;;;5014465;28;20029;-74
2023/06/19 02:24:36;;;;;;;12.27;5.93;;;20.20;99.90;;;;;;4997131;28;20094;-74
2023/06/19 02:27:02;;;;;;;10.85;5.82;;;20.20;99.90;;;;;;5015339;28;20040;-74
2023/06/19 02:29:29;;;;;;;10.35;5.75;;;20.20;99.90;;;;;;4978869;28;20037;-74
2023/06/19 02:31:55;;;;;;;11.75;5.93;;;20.20;99.90;;;;;;5012030;28;20279;-74
2023/06/19 02:34:24;;;;;;;11.07;5.97;;;20.30;99.90;;;;;;4998615;28;20069;-74
2023/06/19 02:36:50;;;;;;;9.75;5.55;;;20.30;99.90;;;;;;5013573;28;20022;-74
2023/06/19 02:39:15;;;;;;;11.38;5.90;;;20.30;99.90;;;;;;4996600;28;20034;-74
2023/06/19 02:41:45;;;;;;;10.50;6.13;;;20.40;99.90;;;;;;4989435;28;20259;-74
2023/06/19 02:44:14;;;;;;;10.63;5.68;;;20.40;99.90;;;;;;5014984;28;20287;-74
2023/06/19 02:46:40;;;;;;;11.18;6.18;;;20.40;99.90;;;;;;5015593;28;20074;-74
2023/06/19 02:49:06;;;;;;;10.77;6.05;;;20.40;99.90;;;;;;5013887;28;20101;-74
2023/06/19 02:51:31;;;;;;;10.30;5.80;;;20.40;99.90;;;;;;4982537;28;20035;-74
2023/06/19 02:53:57;;;;;;;10.00;5.95;;;20.40;99.90;;;;;;4982758;28;20061;-74
2023/06/19 02:56:25;;;;;;;13.60;5.57;;;20.40;99.90;;;;;;5000846;28;20058;-74
2023/06/19 02:58:50;;;;;;;9.93;5.32;;;20.40;99.90;;;;;;5014145;28;20030;-74
2023/06/19 03:01:16;;;;;;;11.05;5.75;;;20.40;99.90;;;;;;4998022;28;20044;-74
2023/06/19 03:03:42;;;;;;;10.38;5.72;;;20.40;99.90;;;;;;5015216;28;20055;-74
2023/06/19 03:06:08;;;;;;;12.52;5.60;;;20.40;99.90;;;;;;4997526;28;20279;-74
2023/06/19 03:08:37;;;;;;;13.57;6.30;;;20.40;99.90;;;;;;5013909;28;20028;-74
2023/06/19 03:11:06;;;;;;;10.57;5.82;;;20.40;99.90;;;;;;5012977;28;20038;-74
2023/06/19 03:13:43;;;;;;;12.43;5.90;;;20.40;99.90;;;;;;5023218;28;20064;-74
2023/06/19 03:16:09;;;;;;;11.57;6.38;;;20.40;99.90;;;;;;5014238;28;20042;-74
2023/06/19 03:18:35;;;;;;;10.38;5.82;;;20.40;99.90;;;;;;4997583;28;20392;-74
2023/06/19 03:21:00;;;;;;;11.07;6.28;;;20.40;99.90;;;;;;4998106;28;20030;-74
2023/06/19 03:23:26;;;;;;;12.10;6.20;;;20.20;99.90;;;;;;5013366;28;20033;-74
2023/06/19 03:25:52;;;;;;;10.93;6.32;;;20.50;99.90;;;;;;4998643;28;20048;-74
2023/06/19 03:28:17;;;;;;;11.02;5.97;;;20.60;99.90;;;;;;5011458;28;20026;-74
2023/06/19 03:30:43;;;;;;;12.25;6.10;;;20.60;99.90;;;;;;4994750;28;20907;-74
2023/06/19 03:33:09;;;;;;;11.57;6.47;;;20.60;99.90;;;;;;5001134;28;20124;-74
2023/06/19 03:35:34;;;;;;;11.45;6.50;;;20.60;99.90;;;;;;5001533;28;20017;-74
2023/06/19 03:38:00;;;;;;;11.55;6.57;;;20.70;99.90;;;;;;5018366;28;20022;-73
2023/06/19 03:40:26;;;;;;;11.02;6.53;;;20.70;99.90;;;;;;4984755;28;20030;-74
2023/06/19 03:42:51;;;;;;;10.52;5.93;;;20.80;99.90;;;;;;4985379;28;20030;-74
2023/06/19 03:45:17;;;;;;;10.73;6.15;;;20.80;99.90;;;;;;5001835;28;20084;-74
2023/06/19 03:47:43;;;;;;;12.18;6.07;;;20.80;99.90;;;;;;5017789;28;20064;-74
2023/06/19 03:50:09;;;;;;;10.45;6.10;;;20.80;99.90;;;;;;4986001;28;20026;-74
2023/06/19 03:52:36;;;;;;;11.10;6.00;;;20.80;99.90;;;;;;4999471;28;20048;-74
2023/06/19 03:55:03;;;;;;;11.52;6.13;;;20.80;99.90;;;;;;5017176;28;20032;-74
2023/06/19 03:57:29;;;;;;;10.75;5.60;;;20.80;99.90;;;;;;5017495;28;20018;-74
2023/06/19 03:59:56;;;;;;;10.27;5.68;;;20.80;99.90;;;;;;5000277;28;20026;-74
2023/06/19 04:02:21;;;;;;;10.43;5.90;;;20.80;99.90;;;;;;5015244;28;20139;-74
2023/06/19 04:04:47;;;;;;;11.45;6.20;;;20.80;99.90;;;;;;4997143;28;20022;-74
2023/06/19 04:07:13;;;;;;;10.02;6.10;;;20.80;99.90;;;;;;5001385;28;20259;-74
2023/06/19 04:09:39;;;;;;;10.45;6.03;;;20.80;99.90;;;;;;5015966;28;20026;-74
2023/06/19 04:12:05;;;;;;;10.70;6.03;;;20.80;99.90;;;;;;5001078;28;20049;-74
2023/06/19 04:14:31;;;;;;;11.52;6.20;;;20.90;99.90;;;;;;5000401;28;20252;-74
2023/06/19 04:16:56;;;;;;;9.65;5.65;;;20.90;99.90;;;;;;5002981;28;20126;-74
2023/06/19 04:19:22;;;;;;;9.30;5.07;;;20.90;99.90;;;;;;5015269;28;20167;-74
2023/06/19 04:21:48;;;;;;;10.73;5.38;;;20.90;99.90;;;;;;5017145;28;20025;-74
2023/06/19 04:24:13;;;;;;;10.55;5.68;;;20.90;99.90;;;;;;4966981;28;20179;-74
2023/06/19 04:26:39;;;;;;;9.65;5.40;;;20.90;99.90;;;;;;5000816;28;20029;-75
2023/06/19 04:29:06;;;;;;;10.23;5.35;;;21.00;99.90;;;;;;4998902;28;20055;-74
2023/06/19 04:31:32;;;;;;;12.15;5.72;;;21.00;99.90;;;;;;5015952;28;20123;-74
2023/06/19 04:33:58;;;;;;;9.95;5.57;;;21.00;99.90;;;;;;5014369;28;20295;-74
2023/06/19 04:36:23;;;;;;;9.57;5.45;;;21.00;99.90;;;;;;4998902;28;20041;-74
2023/06/19 04:38:52;;;;;;;10.02;5.20;;;21.00;99.90;;;;;;5000205;28;20018;-74
2023/06/19 04:41:17;;;;;;;9.60;5.40;;;21.10;99.90;;;;;;5012959;28;20026;-74
2023/06/19 04:43:43;;;;;;;10.82;5.70;;;21.10;99.90;;;;;;5000922;28;20024;-74
2023/06/19 04:46:09;;;;;;;10.57;5.30;;;21.10;99.90;;;;;;4998922;28;20034;-74
2023/06/19 04:48:36;;;;;;;10.68;5.15;;;21.20;99.90;;;;;;5015981;28;20212;-74
2023/06/19 04:51:02;;;;;;;9.82;5.30;;;21.10;99.90;;;;;;5016031;28;20058;-74
2023/06/19 04:53:28;;;;;;;10.93;5.53;;;21.20;99.90;;;;;;5014684;28;20407;-75
2023/06/19 04:55:55;;;;;;;10.88;5.55;;;21.30;99.90;;;;;;5012489;28;20050;-75
2023/06/19 04:58:21;;;;;;;11.02;5.68;;;21.30;99.90;;;;;;5012967;28;20319;-75
2023/06/19 05:00:51;;;;;;;9.80;5.43;;;21.30;99.90;;;;;;5012877;28;20022;-75
2023/06/19 05:03:17;;;;;;;13.23;5.30;;;21.30;99.90;;;;;;5015926;28;20033;-75
2023/06/19 05:05:44;;;;;;;9.95;5.40;;;21.30;99.90;;;;;;5014696;28;20141;-75
2023/06/19 05:08:10;;;;;;;9.60;5.68;;;21.30;99.90;;;;;;5016549;28;20025;-75
2023/06/19 05:10:35;;;;;;;12.23;5.43;;;21.30;99.90;;;;;;4999607;28;20094;-75
2023/06/19 05:13:01;;;;;;;9.80;5.07;;;21.40;99.90;;;;;;5016578;28;20034;-75
2023/06/19 05:15:28;;;;;;;9.60;4.97;;;21.40;99.90;;;;;;4999624;28;20291;-74
2023/06/19 05:17:54;;;;;;;9.20;4.65;;;21.40;99.90;;;;;;5016067;28;20038;-74
2023/06/19 05:20:20;;;;;;;10.90;5.00;;;21.40;99.90;;;;;;5015000;28;20028;-75
2023/06/19 05:22:46;;;;;;;10.00;4.72;;;21.30;99.90;;;;;;4999228;28;20022;-75
2023/06/19 05:25:11;;;;;;;9.95;4.78;;;21.40;99.90;;;;;;4999911;28;20029;-75
2023/06/19 05:27:37;;;;;;;9.50;4.60;;;21.40;99.90;;;;;;4998600;28;20041;-75
2023/06/19 05:30:04;;;;;;;13.60;4.68;;;21.40;99.90;;;;;;5012162;28;20033;-75
2023/06/19 05:32:30;;;;;;;9.40;4.60;;;21.40;99.90;;;;;;5016506;28;20022;-74
2023/06/19 05:34:56;;;;;;;8.68;4.40;;;21.40;99.90;;;;;;5000120;28;20315;-75
2023/06/19 05:37:22;;;;;;;9.90;4.40;;;21.40;99.90;;;;;;4997119;28;20029;-75
2023/06/19 05:39:49;;;;;;;9.35;4.53;;;21.40;99.90;;;;;;4990566;28;20038;-75
2023/06/19 05:42:14;;;;;;;10.10;4.35;;;21.40;99.90;;;;;;5017816;28;20057;-75
2023/06/19 05:44:40;;;;;;;8.32;4.25;;;21.40;99.90;;;;;;5001613;28;20022;-75
2023/06/19 05:47:06;;;;;;;9.50;4.40;;;21.50;99.90;;;;;;4984521;28;20042;-75
2023/06/19 05:49:32;;;;;;;8.93;4.13;;;21.50;99.90;;;;;;4986225;28;20296;-75
2023/06/19 05:51:58;;;;;;;10.18;4.50;;;21.50;99.90;;;;;;5020352;28;20101;-75
2023/06/19 05:54:25;;;;;;;12.38;4.38;;;21.50;99.90;;;;;;5003185;28;20086;-75
2023/06/19 05:56:52;;;;;;;10.65;4.40;;;21.50;99.90;;;;;;5019037;28;20127;-75
2023/06/19 05:59:18;;;;;;;11.15;4.95;;;21.60;99.90;;;;;;4986664;28;20079;-75
2023/06/19 06:01:43;;;;;;;9.30;4.43;;;21.60;99.90;;;;;;5016400;28;20026;-75
2023/06/19 06:04:09;;;;;;;11.00;5.07;;;21.70;99.90;;;;;;5003014;28;20134;-75
2023/06/19 06:06:35;;;;;;;8.63;4.50;;;21.70;99.90;;;;;;5003814;28;20040;-75
2023/06/19 06:09:01;;;;;;;9.90;5.15;;;21.80;99.90;;;;;;5002800;28;20049;-75
2023/06/19 06:11:26;;;;;;;10.75;5.20;;;21.80;99.90;;;;;;5018931;28;20087;-75
2023/06/19 06:13:52;;;;;;;10.63;5.60;;;21.80;99.90;;;;;;5017174;28;20098;-75
2023/06/19 06:16:18;;;;;;;10.25;5.30;;;21.80;99.90;;;;;;5003450;28;20329;-75
2023/06/19 06:18:45;;;;;;;10.40;5.57;;;21.80;99.90;;;;;;5012798;28;20046;-75
2023/06/19 06:21:12;;;;;;;12.40;5.90;;;21.80;99.90;;;;;;4981191;28;20031;-75
2023/06/19 06:23:40;;;;;;;10.60;5.60;;;21.80;99.90;;;;;;4981493;28;20252;-75
2023/06/19 06:26:06;;;;;;;10.55;5.70;;;21.70;99.90;;;;;;5013491;28;20121;-75
2023/06/19 06:28:31;;;;;;;10.60;5.43;;;21.70;99.90;;;;;;5014366;28;20037;-75
2023/06/19 06:30:57;;;;;;;10.90;5.63;;;21.70;99.90;;;;;;4983375;28;20030;-75
2023/06/19 06:33:23;;;;;;;10.55;6.10;;;21.60;99.90;;;;;;4996236;28;20045;-75
2023/06/19 06:35:49;;;;;;;10.90;6.45;;;21.60;99.90;;;;;;4997589;28;20035;-75
2023/06/19 06:38:15;;;;;;;11.40;6.60;;;21.60;99.90;;;;;;4992390;28;20078;-75
2023/06/19 06:40:42;;;;;;;11.20;6.35;;;21.60;99.90;;;;;;5013875;28;20169;-75
2023/06/19 06:43:08;;;;;;;10.60;6.43;;;;;;;;;;5015424;28;20028;-75
2023/06/19 06:45:36;;;;;;;11.45;5.97;;;21.60;99.90;;;;;;5016500;28;20071;-75
2023/06/19 06:48:02;;;;;;;9.60;5.40;;;21.60;99.90;;;;;;5011536;28;20022;-75
2023/06/19 06:50:28;;;;;;;10.82;5.50;;;21.70;99.90;;;;;;5014760;28;20202;-75
2023/06/19 06:52:53;;;;;;;9.40;5.18;;;21.80;99.90;;;;;;5000958;28;20175;-75
2023/06/19 06:55:19;;;;;;;11.13;4.90;;;21.90;99.90;;;;;;5013248;28;20056;-76
2023/06/19 06:57:45;;;;;;;10.10;4.80;;;21.90;99.90;;;;;;4982358;28;20174;-75
2023/06/19 07:00:11;;;;;;;8.50;4.60;;;21.90;99.90;;;;;;4995545;28;20236;-75
2023/06/19 07:02:39;;;;;;;9.05;4.45;;;21.80;99.90;;;;;;4997315;28;20034;-75
2023/06/19 07:05:07;;;;;;;10.10;3.95;;;21.80;99.90;;;;;;5007233;28;20271;-75
2023/06/19 07:07:32;;;;;;;8.88;4.20;;;21.90;99.90;;;;;;5011961;28;20030;-75
2023/06/19 07:09:58;;;;;;;10.10;4.10;;;21.90;99.90;;;;;;4995965;28;20074;-75
2023/06/19 07:12:24;;;;;;;8.68;3.72;;;21.90;99.90;;;;;;4987828;28;20022;-75
2023/06/19 07:14:53;;;;;;;9.23;3.85;;;21.80;99.90;;;;;;4987096;28;20025;-75
2023/06/19 07:17:20;;;;;;;9.07;4.07;;;21.70;99.90;;;;;;4982583;28;20045;-76
2023/06/19 07:19:46;;;;;;;8.40;4.00;;;21.70;99.90;;;;;;4996916;28;20157;-75
2023/06/19 07:22:13;;;;;;;8.32;4.55;;;21.60;99.90;;;;;;4997615;28;20204;-75
2023/06/19 07:24:40;;;;;;;8.95;3.97;;;21.50;99.90;;;;;;4996631;28;20068;-75
2023/06/19 07:27:06;;;;;;;9.20;4.60;;;21.40;99.90;;;;;;5012186;28;20017;-75
2023/06/19 07:29:32;;;;;;;16.98;5.35;;;21.30;99.90;;;;;;4981384;28;20037;-76
2023/06/19 07:31:58;;;;;;;12.05;5.57;;;21.20;99.90;;;;;;4998522;28;20026;-75
2023/06/19 07:34:25;;;;;;;10.45;5.85;;;21.00;99.90;;;;;;5013400;28;20167;-75
2023/06/19 07:36:51;;;;;;;11.13;6.63;;;20.90;99.90;;;;;;4981051;28;20045;-75
2023/06/19 07:39:16;;;;;;;12.35;7.65;;;20.90;99.90;;;;;;5012226;28;20029;-75
2023/06/19 07:41:42;;;;;;;12.23;8.30;;;20.90;99.90;;;;;;4980694;28;20018;-75
2023/06/19 07:44:08;;;;;;;12.52;8.35;;;20.80;99.90;;;;;;4981992;28;20041;-75
2023/06/19 07:46:33;;;;;;;12.80;8.68;;;20.80;99.90;;;;;;5014462;28;20081;-75
2023/06/19 07:48:59;;;;;;;14.05;8.98;;;20.80;99.90;;;;;;5014785;28;20105;-75
2023/06/19 07:51:25;;;;;;;13.07;8.80;;;20.80;99.90;;;;;;4993300;28;20025;-75
2023/06/19 07:53:50;;;;;;;13.27;9.00;;;20.80;99.90;;;;;;5004361;28;20325;-75
2023/06/19 07:56:16;;;;;;;15.00;9.40;;;20.80;99.90;;;;;;4998207;28;20267;-75
2023/06/19 07:58:42;;;;;;;14.07;10.05;;;20.80;99.90;;;;;;4997684;28;20064;-75
2023/06/19 08:01:08;;;;;;;15.35;10.18;;;20.80;99.90;;;;;;5011342;28;20156;-75
2023/06/19 08:03:33;;;;;;;13.10;8.73;;;20.80;99.90;;;;;;5011603;28;20026;-75
2023/06/19 08:05:59;;;;;;;14.13;9.82;;;20.80;99.90;;;;;;4994267;28;20170;-75
2023/06/19 08:08:26;;;;;;;14.93;10.32;;;20.80;99.90;;;;;;4998529;28;20048;-75
2023/06/19 08:10:52;;;;;;;17.13;10.63;;;20.90;99.90;;;;;;5012218;28;20038;-75
2023/06/19 08:13:17;;;;;;;15.80;10.20;;;20.80;99.90;;;;;;5010328;28;20233;-75
2023/06/19 08:15:45;;;;;;;13.82;8.98;;;20.90;99.90;;;;;;5013785;28;20041;-75
2023/06/19 08:18:10;;;;;;;16.92;8.68;;;20.90;99.90;;;;;;4979824;28;20089;-75
2023/06/19 08:20:36;;;;;;;12.98;8.15;;;20.80;99.90;;;;;;5001766;28;20108;-75
2023/06/19 08:23:02;;;;;;;12.38;7.60;;;20.80;99.90;;;;;;5014565;28;20156;-75
2023/06/19 08:25:27;;;;;;;12.85;8.35;;;20.80;99.90;;;;;;5007904;28;20065;-75
2023/06/19 08:27:53;;;;;;;12.90;7.63;;;20.70;99.90;;;;;;5004158;28;20026;-75
2023/06/19 08:30:19;;;;;;;12.90;7.75;;;20.80;99.90;;;;;;5015309;28;20049;-76
2023/06/19 08:32:46;;;;;;;15.32;8.43;;;20.70;99.90;;;;;;4969230;28;20174;-75
2023/06/19 08:35:12;;;;;;;13.05;7.70;;;20.70;99.90;;;;;;4998932;28;20176;-75
2023/06/19 08:37:38;;;;;;;12.50;7.97;;;20.70;99.90;;;;;;5014818;28;20159;-75
2023/06/19 08:40:08;;;;;;;15.25;8.40;;;20.70;99.90;;;;;;4999823;28;20217;-75
2023/06/19 08:42:34;;;;;;;13.70;8.27;;;20.70;99.90;;;;;;5014122;28;20029;-75
2023/06/19 08:45:00;;;;;;;14.30;8.38;;;20.70;99.90;;;;;;4986577;28;20028;-75
2023/06/19 08:47:31;;;;;;;13.25;8.00;;;20.70;99.90;;;;;;5017227;28;20042;-75
2023/06/19 08:49:58;;;;;;;13.43;7.43;;;20.70;99.90;;;;;;4997730;28;20886;-75
2023/06/19 08:52:24;;;;;;;12.18;7.35;;;20.70;99.90;;;;;;5001560;28;20159;-75
2023/06/19 08:54:50;;;;;;;12.80;7.70;;;20.70;99.90;;;;;;4999750;28;20188;-75
2023/06/19 08:57:15;;;;;;;13.93;7.78;;;20.70;99.90;;;;;;5001326;28;20117;-75
2023/06/19 08:59:49;;;;;;;11.90;7.30;;;20.70;99.90;;;;;;4994711;28;20033;-75
2023/06/19 09:02:14;;;;;;;12.15;7.10;;;20.70;99.90;;;;;;4999722;28;20045;-75
2023/06/19 09:04:40;;;;;;;12.45;6.65;;;20.70;99.90;;;;;;4999688;28;20046;-75
2023/06/19 09:07:08;;;;;;;13.85;7.38;;;20.70;99.90;;;;;;5014722;28;20259;-75
2023/06/19 09:09:34;;;;;;;11.45;6.40;;;20.60;99.90;;;;;;5014894;28;20073;-75
2023/06/19 09:12:04;;;;;;;10.95;6.25;;;20.60;99.90;;;;;;5000289;28;21724;-75
2023/06/19 09:14:33;;;;;;;11.68;6.82;;;20.70;99.90;;;;;;5022291;28;20026;-75
2023/06/19 09:17:00;;;;;;;10.23;5.95;;;20.70;99.90;;;;;;5013529;28;20175;-75
2023/06/19 09:19:26;;;;;;;12.30;6.47;;;20.70;99.90;;;;;;5006451;28;20053;-75
2023/06/19 09:21:52;;;;;;;10.57;5.40;;;20.70;99.90;;;;;;4999120;28;20254;-75
2023/06/19 09:24:17;;;;;;;9.98;5.18;;;20.80;99.90;;;;;;4998877;28;20021;-75
2023/06/19 09:26:43;;;;;;;10.32;4.35;;;21.00;99.90;;;;;;5014636;28;20026;-76
2023/06/19 09:29:14;;;;;;;9.07;4.43;;;21.00;99.90;;;;;;4996421;28;20028;-75
2023/06/19 09:31:41;;;;;;;9.40;4.45;;;21.10;99.90;;;;;;4996984;28;20029;-75
2023/06/19 09:34:07;;;;;;;9.85;4.40;;;21.20;99.90;;;;;;5013624;28;20037;-75
2023/06/19 09:36:34;;;;;;;10.75;4.00;;;21.30;99.90;;;;;;5006620;28;20030;-75
2023/06/19 09:39:02;;;;;;;8.63;3.55;;;21.30;99.90;;;;;;4993963;28;20022;-75
2023/06/19 09:41:30;;;;;;;9.57;4.53;;;21.30;99.90;;;;;;5014845;28;20022;-75
2023/06/19 09:43:57;;;;;;;9.68;4.47;;;21.40;99.90;;;;;;4997056;28;20014;-75
2023/06/19 09:46:30;;;;;;;8.45;3.95;;;21.50;99.90;;;;;;4997494;28;20073;-75
2023/06/19 09:48:58;;;;;;;;;;;21.70;99.90;;;;;;5017255;28;20026;-76
2023/06/19 09:51:33;;;;;;;9.35;4.00;;;21.90;99.90;;;;;;5013909;28;20143;-75
2023/06/19 09:54:02;;;;;;;9.98;4.22;;;22.00;99.90;;;;;;5016497;28;20054;-75
2023/06/19 09:56:28;;;;;;;9.23;4.13;;;22.00;99.90;;;;;;5001702;28;20318;-75
2023/06/19 09:58:56;;;;;;;9.50;4.00;;;22.00;99.90;;;;;;4972470;28;20192;-76
2023/06/19 10:01:23;;;;;;;9.93;4.20;;;21.90;99.90;;;;;;5013914;28;20029;-75
2023/06/19 10:03:49;;;;;;;11.18;4.45;;;22.00;99.90;;;;;;4998438;28;20037;-75
2023/06/19 10:06:17;;;;;;;9.20;4.50;;;21.90;99.90;;;;;;5013701;28;20231;-75
2023/06/19 10:08:44;;;;;;;10.50;4.28;;;21.80;99.90;;;;;;4995541;28;20029;-75
2023/06/19 10:11:10;;;;;;;9.43;5.10;;;21.80;99.90;;;;;;4997060;28;20026;-75
2023/06/19 10:13:39;;;;;;;9.57;4.57;;;21.70;99.90;;;;;;5015983;28;20029;-75
2023/06/19 10:16:05;;;;;;;11.45;5.15;;;21.70;99.90;;;;;;5015771;28;20089;-75
2023/06/19 10:18:33;;;;;;;10.77;4.97;;;21.60;99.90;;;;;;4994340;28;20030;-75
2023/06/19 10:20:59;;;;;;;10.30;5.63;;;21.60;99.90;;;;;;5015622;28;20169;-75
2023/06/19 10:23:27;;;;;;;11.57;6.55;;;21.60;99.90;;;;;;4997050;28;20022;-75
2023/06/19 10:25:58;;;;;;;13.20;5.95;;;21.60;99.90;;;;;;4998463;28;20026;-76
2023/06/19 10:28:30;;;;;;;11.88;5.82;;;21.70;99.90;;;;;;5010866;28;20255;-75
2023/06/19 10:30:56;;;;;;;11.10;6.28;;;21.80;99.90;;;;;;5014102;28;20014;-75
2023/06/19 10:33:27;;;;;;;11.18;5.75;;;21.80;99.90;;;;;;4999275;28;20041;-75
2023/06/19 10:35:53;;;;;;;10.88;5.60;;;21.90;99.90;;;;;;4998673;28;20026;-75
2023/06/19 10:38:19;;;;;;;12.02;6.30;;;21.80;99.90;;;;;;5014957;28;20037;-76
2023/06/19 10:40:46;;;;;;;11.00;6.30;;;21.20;99.90;;;;;;5015266;28;20163;-75
2023/06/19 10:43:12;;;;;;;13.07;7.32;;;21.70;99.90;;;;;;5015752;28;20018;-75
2023/06/19 10:45:38;;;;;;;13.15;6.57;;;21.60;99.90;;;;;;5015186;28;20029;-75
2023/06/19 10:48:04;;;;;;;12.10;7.15;;;21.50;99.90;;;;;;4985830;28;20081;-75
2023/06/19 10:50:38;;;;;;;11.30;6.13;;;21.60;99.90;;;;;;5013969;28;20194;-75
2023/06/19 10:53:04;;;;;;;11.32;6.95;;;21.50;99.90;;;;;;5011693;28;20022;-75
2023/06/19 10:55:30;;;;;;;11.85;6.72;;;21.60;99.90;;;;;;5014536;28;20180;-76
2023/06/19 10:57:56;;;;;;;12.50;7.03;;;21.50;99.90;;;;;;5013386;28;20075;-75
2023/06/19 11:00:30;;;;;;;11.10;7.07;;;21.50;99.90;;;;;;5012860;28;20030;-75
2023/06/19 11:02:57;;;;;;;12.55;7.05;;;21.80;99.90;;;;;;5016446;28;20041;-75
2023/06/19 11:05:24;;;;;;;14.05;7.82;;;21.80;99.90;;;;;;5012876;28;20029;-75
2023/06/19 11:07:58;;;;;;;12.48;7.45;;;22.00;99.90;;;;;;4998798;28;20022;-75
2023/06/19 11:10:25;;;;;;;14.40;7.97;;;22.10;99.90;;;;;;5012976;28;20040;-75
2023/06/19 11:12:55;;;;;;;13.60;7.75;;;22.10;99.90;;;;;;5013838;28;20045;-75
2023/06/19 11:15:31;;;;;;;11.85;7.65;;;22.10;99.90;;;;;;5002223;28;20025;-75
2023/06/19 11:17:59;;;;;;;11.68;7.05;;;22.10;99.90;;;;;;4998076;28;20333;-76
2023/06/19 11:20:25;;;;;;;12.45;7.72;;;22.10;99.90;;;;;;5008902;28;20030;-76
2023/06/19 11:22:59;;;;;;;13.50;7.93;;;22.10;99.90;;;;;;5014263;28;20271;-75
2023/06/19 11:25:39;;;;;;;11.70;7.82;;;22.20;99.90;;;;;;4993396;28;20022;-76
2023/06/19 11:28:13;;;;;;;13.13;7.22;;;22.20;99.90;;;;;;5016246;28;20159;-75
2023/06/19 11:30:39;;;;;;;12.48;7.90;;;22.30;99.90;;;;;;5002579;28;20055;-75
2023/06/19 11:33:23;;;;;;;12.93;7.45;;;23.00;99.90;;;;;;4991669;28;20018;-76
2023/06/19 11:35:50;;;;;;;12.02;7.43;;;23.30;99.90;;;;;;4997010;28;20267;-76
2023/06/19 11:38:18;;;;;;;13.05;7.20;;;23.30;99.90;;;;;;5014364;28;20260;-76
2023/06/19 11:40:45;;;;;;;11.55;6.78;;;23.40;99.90;;;;;;5014162;28;20018;-75
2023/06/19 11:43:11;;;;;;;15.18;7.28;;;23.40;99.90;;;;;;4996047;28;20033;-76
2023/06/19 11:45:49;;;;;;;11.60;7.32;;;23.40;99.90;;;;;;5013409;28;20251;-75
2023/06/19 11:48:21;;;;;;;10.88;6.85;;;23.40;99.90;;;;;;5015174;28;20006;-76
2023/06/19 11:50:47;;;;;;;12.15;7.65;;;23.40;99.90;;;;;;4997898;28;20089;-75
2023/06/19 11:53:13;;;;;;;13.90;7.30;;;23.50;99.90;;;;;;4999428;28;20097;-76
2023/06/19 11:55:39;;;;;;;12.02;7.40;;;23.60;99.90;;;;;;5017062;28;20029;-76
2023/06/19 11:58:04;;;;;;;13.07;7.40;;;23.50;99.90;;;;;;5018857;28;20025;-76
2023/06/19 12:00:30;;;;;;;13.63;7.57;;;23.50;99.90;;;;;;5015425;28;20022;-76
2023/06/19 12:02:58;;;;;;;12.90;7.70;;;23.50;99.90;;;;;;5016397;28;20184;-75
2023/06/19 12:05:24;;;;;;;13.35;7.90;;;23.40;99.90;;;;;;4998579;28;20021;-75
2023/06/19 12:07:50;;;;;;;10.85;6.22;;;23.30;99.90;;;;;;4984920;28;20014;-75
2023/06/19 12:10:15;;;;;;;11.80;7.22;;;23.30;99.90;;;;;;5015075;28;20119;-76
2023/06/19 12:12:41;;;;;;;12.45;7.43;;;23.40;99.90;;;;;;4986838;28;20119;-75
2023/06/19 12:15:07;;;;;;;12.70;7.72;;;23.40;99.90;;;;;;4994611;28;20022;-76
2023/06/19 12:17:33;;;;;;;12.30;8.05;;;23.40;99.90;;;;;;5015117;28;20053;-76
2023/06/19 12:19:59;;;;;;;12.13;7.90;;;23.30;99.90;;;;;;5017692;28;20033;-76
2023/06/19 12:22:26;;;;;;;11.45;7.93;;;23.00;99.90;;;;;;5016135;28;20022;-76
2023/06/19 12:24:51;;;;;;;12.43;7.28;;;23.40;99.90;;;;;;4997306;28;20022;-75
2023/06/19 12:27:17;;;;;;;15.35;8.10;;;23.60;99.90;;;;;;5019798;28;20083;-76
2023/06/19 12:29:43;;;;;;;13.25;8.25;;;23.60;99.90;;;;;;5005172;28;20086;-76
2023/06/19 12:32:08;;;;;;;13.52;7.95;;;23.50;99.90;;;;;;5001856;28;20317;-76
2023/06/19 12:34:34;;;;;;;12.95;7.32;;;23.40;99.90;;;;;;4997546;28;20092;-75
2023/06/19 12:37:00;;;;;;;13.15;8.00;;;23.40;99.90;;;;;;5001371;28;20033;-75